Aeroporto :







RITROVATECI SU...

 
LOGIN :

Iscrizione | Disclaimer

   EN    FR    IT 

 









Sommario :    VFR   VFR Marginale   IFR   IFR Intensivo   IFR Molto Intensivo
Visibilità : 
Base nubi : 
>= 8 km
>= 3000ft
5 / 8 km
1000 / 3000 ft
1500m / 5 km
500 / 1000 ft
800 / 1500m
200 / 500 ft
< 800m
< 200 ft
Simboli :   Temporali  Nebbia  Neve Forte  Precipitazioni Forti  Vento > 20 kt






- Altitudine del aeroporto : 352 ft


KAUG - Augusta State

ULTIMO METAR :
  • 290853Z AUTO 16003KT 10SM BKN100 OVC120 04/00 A3021 RMK AO2 SLP233 T00390000 53003

METARs OBSOLETI :
  • 290753Z AUTO 00000KT 10SM OVC100 04/00 A3020 RMK AO2 SLP231 T00390000
  • 290653Z AUTO 00000KT 10SM OVC100 04/M01 A3019 RMK AO2 SLP226 T00391006

TAF KAUG
Valido dal 29 a 09 ore il 30 a 06 ore UTC


290902Z 2909/3006 05004KT P6SM OVC100
FM291900 08005KT 3SM -SN BKN025
FM292100 07005KT 1/2SM SN OVC003
FM300200 08006KT 3SM -SN OVC005



MetMap, La meteo Aeronautica in un colpo d'occhio ! - Copyright ORBIFLY Dicembre 2007 - Disclaimer

ORBIFLY MET'MAP TEAM :

Programmazione e sviluppo : Alexandra Zaïnal
Concezione : Baudouin d'Aumeries
Aiuto per la programmazione : Marc-Olivier Méhu
Supporto tecnico e logistico : Manuel Goepfert
Aiuto per la traduzione : Arnaldo La Scala

Contatto : metmap@orbifly.com




FONTI E CREDITI :

   NOAA